createdAt,value
2022-07-30T00:00:12.202Z,100655.16
2022-07-30T00:02:50.736Z,100650.44
2022-07-30T00:05:17.222Z,100649.59
2022-07-30T00:07:43.695Z,100650.13
2022-07-30T00:10:10.556Z,100651.41
2022-07-30T00:12:37.023Z,100654.03
2022-07-30T00:15:03.889Z,100660.56
2022-07-30T00:17:30.351Z,100651.38
2022-07-30T00:19:58.560Z,100657.19
2022-07-30T00:22:25.739Z,100656.34
2022-07-30T00:24:52.764Z,100653.97
2022-07-30T00:27:19.324Z,100653.97
2022-07-30T00:29:45.842Z,100647.22
2022-07-30T00:32:12.369Z,100653.56
2022-07-30T00:34:38.842Z,100653.59
2022-07-30T00:37:05.846Z,100653.75
2022-07-30T00:39:32.320Z,100655.28
2022-07-30T00:42:01.540Z,100656.69
2022-07-30T00:44:29.204Z,100657.31
2022-07-30T00:46:56.297Z,100657.16
2022-07-30T00:49:23.698Z,100658.34
2022-07-30T00:51:51.971Z,100658.84
2022-07-30T00:54:18.988Z,100665.59
2022-07-30T00:56:45.475Z,100660.34
2022-07-30T00:59:11.983Z,100662.06
2022-07-30T01:01:38.581Z,100663.09
2022-07-30T01:04:08.209Z,100666.09
2022-07-30T01:06:34.693Z,100670.03
2022-07-30T01:09:01.163Z,100668.97
2022-07-30T01:11:35.611Z,100669.84
2022-07-30T01:14:03.476Z,100668.09
2022-07-30T01:16:30.176Z,100664.03
2022-07-30T01:19:16.904Z,100672.50
2022-07-30T01:21:49.327Z,100669.25
2022-07-30T01:24:33.396Z,100667.06
2022-07-30T01:27:01.284Z,100667.09
2022-07-30T01:29:30.660Z,100676.13
2022-07-30T01:32:00.122Z,100670.19
2022-07-30T01:34:32.633Z,100681.69
2022-07-30T01:37:00.864Z,100681.88
2022-07-30T01:39:30.155Z,100683.72
2022-07-30T01:41:58.188Z,100686.34
2022-07-30T01:44:27.076Z,100685.50
2022-07-30T01:46:55.689Z,100682.50
2022-07-30T01:49:24.105Z,100696.00
2022-07-30T01:51:52.021Z,100691.03
2022-07-30T01:54:19.835Z,100708.69
2022-07-30T01:56:47.832Z,100720.72
2022-07-30T01:59:18.410Z,100728.63
2022-07-30T02:01:45.050Z,100728.03
2022-07-30T02:04:11.549Z,100732.03
2022-07-30T02:06:43.318Z,100728.31
2022-07-30T02:09:11.145Z,100730.78
2022-07-30T02:12:03.608Z,100727.25
2022-07-30T02:14:44.478Z,100726.94
2022-07-30T02:17:18.839Z,100722.84
2022-07-30T02:19:48.965Z,100733.00
2022-07-30T02:22:18.496Z,100738.56
2022-07-30T02:24:48.905Z,100729.41
2022-07-30T02:27:19.984Z,100737.75
2022-07-30T02:29:48.637Z,100741.97
2022-07-30T02:32:19.014Z,100760.06
2022-07-30T02:34:49.865Z,100761.44
2022-07-30T02:37:20.325Z,100756.75
2022-07-30T02:40:07.604Z,100771.06
2022-07-30T02:42:34.823Z,100770.31
2022-07-30T02:45:04.650Z,100775.06
2022-07-30T02:47:32.094Z,100787.63
2022-07-30T02:50:00.777Z,100794.63
2022-07-30T02:52:28.748Z,100797.06
2022-07-30T02:54:57.547Z,100809.81
2022-07-30T02:57:25.656Z,100814.81
2022-07-30T02:59:54.818Z,100816.91
2022-07-30T03:02:29.119Z,100830.13
2022-07-30T03:04:58.839Z,100827.00
2022-07-30T03:07:27.080Z,100829.81
2022-07-30T03:09:55.937Z,100835.63
2022-07-30T03:12:24.656Z,100833.81
2022-07-30T03:14:51.785Z,100828.88
2022-07-30T03:17:19.749Z,100833.97
2022-07-30T03:19:49.369Z,100826.31
2022-07-30T03:22:19.033Z,100821.72
2022-07-30T03:24:49.210Z,100824.88
2022-07-30T03:27:17.441Z,100830.47
2022-07-30T03:29:47.050Z,100827.53
2022-07-30T03:32:15.009Z,100819.75
2022-07-30T03:34:43.771Z,100809.78
2022-07-30T03:37:10.983Z,100791.09
2022-07-30T03:39:38.446Z,100780.47
2022-07-30T03:42:07.868Z,100785.97
2022-07-30T03:44:35.102Z,100783.19
2022-07-30T03:47:04.933Z,100775.13
2022-07-30T03:49:32.902Z,100778.91
2022-07-30T03:52:01.209Z,100764.66
2022-07-30T03:54:27.954Z,100752.09
2022-07-30T03:56:54.499Z,100748.06
2022-07-30T03:59:21.066Z,100746.25
2022-07-30T04:01:47.616Z,100750.41
2022-07-30T04:04:14.202Z,100757.75
2022-07-30T04:06:41.027Z,100748.53
2022-07-30T04:09:09.443Z,100753.75
2022-07-30T04:11:40.898Z,100760.81
2022-07-30T04:14:07.641Z,100758.97
2022-07-30T04:16:42.116Z,100751.59
2022-07-30T04:19:15.335Z,100757.44
2022-07-30T04:21:44.741Z,100760.22
2022-07-30T04:24:12.611Z,100758.25
2022-07-30T04:26:39.653Z,100752.56
2022-07-30T04:29:16.587Z,100757.53
2022-07-30T04:31:46.692Z,100754.44
2022-07-30T04:34:15.161Z,100759.38
2022-07-30T04:36:43.017Z,100766.03
2022-07-30T04:39:10.885Z,100771.25
2022-07-30T04:41:49.162Z,100781.16
2022-07-30T04:44:17.866Z,100789.47
2022-07-30T04:46:44.600Z,100805.53
2022-07-30T04:49:14.057Z,100810.06
2022-07-30T04:51:41.004Z,100806.06
2022-07-30T04:54:15.622Z,100819.81
2022-07-30T04:56:53.802Z,100819.91
2022-07-30T04:59:23.980Z,100822.19
2022-07-30T05:01:51.590Z,100826.63
2022-07-30T05:04:19.336Z,100831.28
2022-07-30T05:06:46.799Z,100835.47
2022-07-30T05:09:15.961Z,100832.63
2022-07-30T05:11:42.511Z,100834.66
2022-07-30T05:14:08.952Z,100836.94
2022-07-30T05:16:35.796Z,100840.06
2022-07-30T05:19:02.304Z,100844.88
2022-07-30T05:21:34.867Z,100853.97
2022-07-30T05:24:01.338Z,100849.38
2022-07-30T05:26:28.191Z,100850.66
2022-07-30T05:28:56.989Z,100857.63
2022-07-30T05:31:24.937Z,100861.63
2022-07-30T05:33:51.716Z,100864.75
2022-07-30T05:36:21.543Z,100858.78
2022-07-30T05:38:49.107Z,100854.81
2022-07-30T05:41:19.182Z,100858.19
2022-07-30T05:44:00.064Z,100849.44
2022-07-30T05:46:27.050Z,100856.94
2022-07-30T05:48:53.914Z,100849.97
2022-07-30T05:51:22.024Z,100855.50
2022-07-30T05:53:48.554Z,100858.34
2022-07-30T05:56:15.015Z,100859.00
2022-07-30T05:58:41.554Z,100856.19
2022-07-30T06:01:08.109Z,100850.81
2022-07-30T06:03:34.971Z,100855.38
2022-07-30T06:06:04.491Z,100859.06
2022-07-30T06:08:31.146Z,100864.84
2022-07-30T06:10:57.691Z,100857.63
2022-07-30T06:13:24.601Z,100878.19
2022-07-30T06:15:51.207Z,100882.13
2022-07-30T06:18:17.725Z,100883.66
2022-07-30T06:20:44.927Z,100892.84
2022-07-30T06:23:11.380Z,100891.25
2022-07-30T06:25:39.311Z,100891.25
2022-07-30T06:28:27.752Z,100895.78
2022-07-30T06:30:54.153Z,100888.91
2022-07-30T06:33:20.645Z,100895.88
2022-07-30T06:35:48.826Z,100885.53
2022-07-30T06:38:15.311Z,100884.25
2022-07-30T06:40:41.752Z,100874.34
2022-07-30T06:43:08.238Z,100884.44
2022-07-30T06:45:34.745Z,100873.81
2022-07-30T06:48:01.609Z,100866.00
2022-07-30T06:50:28.234Z,100859.47
2022-07-30T06:52:54.867Z,100858.03
2022-07-30T06:55:21.441Z,100855.09
2022-07-30T06:57:47.942Z,100851.72
2022-07-30T07:00:14.855Z,100857.06
2022-07-30T07:02:42.686Z,100849.38
2022-07-30T07:05:09.767Z,100842.06
2022-07-30T07:07:41.729Z,100842.63
2022-07-30T07:10:10.453Z,100830.47
2022-07-30T07:12:36.995Z,100827.78
2022-07-30T07:15:04.065Z,100816.00
2022-07-30T07:17:30.573Z,100817.53
2022-07-30T07:20:01.669Z,100824.31
2022-07-30T07:22:29.024Z,100834.00
2022-07-30T07:24:55.655Z,100835.22
2022-07-30T07:27:22.202Z,100842.56
2022-07-30T07:30:04.965Z,100850.28
2022-07-30T07:32:33.586Z,100842.72
2022-07-30T07:35:00.067Z,100842.38
2022-07-30T07:37:26.598Z,100848.16
2022-07-30T07:39:53.093Z,100846.09
2022-07-30T07:42:19.600Z,100847.44
2022-07-30T07:44:46.037Z,100852.19
2022-07-30T07:47:12.493Z,100849.56
2022-07-30T07:49:38.950Z,100847.09
2022-07-30T07:52:05.908Z,100842.16
2022-07-30T07:54:32.469Z,100838.53
2022-07-30T07:56:59.355Z,100842.59
2022-07-30T07:59:39.610Z,100841.72
2022-07-30T08:02:08.138Z,100845.34
2022-07-30T08:04:34.930Z,100842.59
2022-07-30T08:07:01.896Z,100845.06
2022-07-30T08:09:43.592Z,100834.06
2022-07-30T08:12:12.395Z,100837.72
2022-07-30T08:14:39.041Z,100829.84
2022-07-30T08:17:06.111Z,100829.63
2022-07-30T08:19:32.992Z,100825.81
2022-07-30T08:21:59.648Z,100824.94
2022-07-30T08:24:26.800Z,100826.81
2022-07-30T08:26:53.335Z,100835.34
2022-07-30T08:29:19.808Z,100825.50
2022-07-30T08:31:46.268Z,100839.63
2022-07-30T08:34:13.534Z,100829.19
2022-07-30T08:36:40.681Z,100832.66
2022-07-30T08:39:07.197Z,100825.66
2022-07-30T08:41:35.475Z,100829.06
2022-07-30T08:44:03.739Z,100824.47
2022-07-30T08:46:31.925Z,100835.50
2022-07-30T08:49:00.541Z,100831.56
2022-07-30T08:51:37.523Z,100833.28
2022-07-30T08:54:04.845Z,100839.19
2022-07-30T08:56:32.813Z,100843.88
2022-07-30T08:59:02.895Z,100855.06
2022-07-30T09:01:29.348Z,100848.66
2022-07-30T09:03:55.862Z,100848.84
2022-07-30T09:06:22.490Z,100857.81
2022-07-30T09:08:49.066Z,100854.25
2022-07-30T09:11:15.636Z,100855.38
2022-07-30T09:13:44.341Z,100858.88
2022-07-30T09:16:25.164Z,100852.91
2022-07-30T09:18:53.650Z,100850.13
2022-07-30T09:21:28.565Z,100854.59
2022-07-30T09:24:00.918Z,100857.78
2022-07-30T09:26:28.442Z,100852.91
2022-07-30T09:28:55.361Z,100858.50
2022-07-30T09:31:23.763Z,100856.25
2022-07-30T09:33:50.405Z,100862.19
2022-07-30T09:36:18.315Z,100855.94
2022-07-30T09:38:53.364Z,100862.88
2022-07-30T09:41:39.209Z,100860.00
2022-07-30T09:44:06.656Z,100868.81
2022-07-30T09:46:51.472Z,100866.78
2022-07-30T09:49:19.476Z,100860.47
2022-07-30T09:51:56.622Z,100860.94
2022-07-30T09:54:42.502Z,100867.47
2022-07-30T09:57:25.808Z,100857.28
2022-07-30T09:59:55.830Z,100853.78
2022-07-30T10:02:33.633Z,100856.22
2022-07-30T10:05:19.027Z,100854.75
2022-07-30T10:07:51.167Z,100859.84
2022-07-30T10:10:29.225Z,100856.47
2022-07-30T10:13:01.086Z,100862.00
2022-07-30T10:15:33.571Z,100860.31
2022-07-30T10:18:02.574Z,100852.38
2022-07-30T10:20:33.604Z,100860.47
2022-07-30T10:23:08.256Z,100858.22
2022-07-30T10:25:49.032Z,100860.19
2022-07-30T10:28:21.357Z,100853.84
2022-07-30T10:30:53.495Z,100849.72
2022-07-30T10:33:37.475Z,100854.75
2022-07-30T10:36:08.994Z,100857.16
2022-07-30T10:38:39.463Z,100854.66
2022-07-30T10:41:10.909Z,100855.59
2022-07-30T10:43:59.711Z,100855.34
2022-07-30T10:47:07.754Z,100853.06
2022-07-30T10:49:35.273Z,100855.91
2022-07-30T10:52:08.447Z,100855.00
2022-07-30T10:54:42.887Z,100857.38
2022-07-30T10:57:14.906Z,100859.22
2022-07-30T10:59:59.902Z,100858.47
2022-07-30T11:02:31.291Z,100860.97
2022-07-30T11:05:43.830Z,100855.28
2022-07-30T11:08:42.962Z,100851.09
2022-07-30T11:12:01.952Z,100857.13
2022-07-30T11:14:46.262Z,100858.63
2022-07-30T11:17:16.433Z,100861.59
2022-07-30T11:20:05.802Z,100854.25
2022-07-30T11:22:40.477Z,100855.63
2022-07-30T11:25:13.247Z,100855.84
2022-07-30T11:27:48.970Z,100852.31
2022-07-30T11:30:15.567Z,100855.38
2022-07-30T11:32:45.679Z,100856.78
2022-07-30T11:35:25.451Z,100860.44
2022-07-30T11:38:01.929Z,100862.22
2022-07-30T11:40:58.783Z,100848.84
2022-07-30T11:43:35.871Z,100853.50
2022-07-30T11:46:10.880Z,100858.81
2022-07-30T11:48:42.019Z,100861.06
2022-07-30T11:51:10.067Z,100864.66
2022-07-30T11:53:37.696Z,100851.31
2022-07-30T11:56:04.490Z,100859.28
2022-07-30T11:58:40.724Z,100857.19
2022-07-30T12:01:13.359Z,100863.78
2022-07-30T12:03:44.644Z,100867.63
2022-07-30T12:06:17.863Z,100869.09
2022-07-30T12:08:46.850Z,100870.66
2022-07-30T12:11:13.803Z,100865.16
2022-07-30T12:13:43.927Z,100859.25
2022-07-30T12:16:14.226Z,100860.72
2022-07-30T12:18:40.734Z,100871.31
2022-07-30T12:21:15.680Z,100870.28
2022-07-30T12:23:43.641Z,100866.06
2022-07-30T12:26:26.933Z,100869.13
2022-07-30T12:28:55.121Z,100856.81
2022-07-30T12:31:21.857Z,100870.38
2022-07-30T12:33:48.344Z,100860.50
2022-07-30T12:36:27.114Z,100859.28
2022-07-30T12:38:54.579Z,100859.06
2022-07-30T12:41:22.471Z,100853.81
2022-07-30T12:43:54.025Z,100857.63
2022-07-30T12:46:27.622Z,100859.03
2022-07-30T12:48:55.540Z,100848.50
2022-07-30T12:51:24.249Z,100846.09
2022-07-30T12:53:52.768Z,100852.72
2022-07-30T12:56:39.364Z,100842.09
2022-07-30T12:59:20.988Z,100844.94
2022-07-30T13:01:50.006Z,100846.56
2022-07-30T13:04:16.591Z,100839.72
2022-07-30T13:06:43.635Z,100835.84
2022-07-30T13:09:20.756Z,100833.84
2022-07-30T13:11:48.439Z,100825.88
2022-07-30T13:14:17.079Z,100834.16
2022-07-30T13:16:44.192Z,100826.41
2022-07-30T13:19:12.094Z,100829.91
2022-07-30T13:21:39.615Z,100824.38
2022-07-30T13:24:18.093Z,100827.53
2022-07-30T13:26:45.145Z,100834.25
2022-07-30T13:29:13.436Z,100827.84
2022-07-30T13:31:42.930Z,100831.63
2022-07-30T13:34:11.114Z,100822.81
2022-07-30T13:36:37.700Z,100823.41
2022-07-30T13:39:04.354Z,100823.00
2022-07-30T13:41:31.037Z,100828.13
2022-07-30T13:43:57.637Z,100830.13
2022-07-30T13:46:24.153Z,100821.28
2022-07-30T13:48:50.886Z,100823.75
2022-07-30T13:51:17.497Z,100815.22
2022-07-30T13:53:44.063Z,100813.06
2022-07-30T13:56:12.941Z,100816.13
2022-07-30T13:58:40.117Z,100811.72
2022-07-30T14:01:09.514Z,100808.50
2022-07-30T14:03:47.068Z,100807.59
2022-07-30T14:06:16.562Z,100804.97
2022-07-30T14:08:43.066Z,100805.09
2022-07-30T14:11:09.529Z,100803.03
2022-07-30T14:13:36.025Z,100795.22
2022-07-30T14:16:02.528Z,100796.16
2022-07-30T14:18:29.060Z,100799.94
2022-07-30T14:20:55.910Z,100796.31
2022-07-30T14:23:22.437Z,100793.88
2022-07-30T14:25:49.168Z,100799.72
2022-07-30T14:28:15.907Z,100795.25
2022-07-30T14:30:42.807Z,100789.16
2022-07-30T14:33:09.850Z,100787.06
2022-07-30T14:35:36.406Z,100784.03
2022-07-30T14:38:05.908Z,100786.16
2022-07-30T14:40:32.428Z,100782.84
2022-07-30T14:42:59.423Z,100791.69
2022-07-30T14:45:26.050Z,100786.16
2022-07-30T14:47:56.332Z,100787.06
2022-07-30T14:50:22.940Z,100785.94
2022-07-30T14:52:50.458Z,100784.84
2022-07-30T14:55:17.379Z,100790.38
2022-07-30T14:57:44.323Z,100793.16
2022-07-30T15:00:11.927Z,100780.75
2022-07-30T15:02:38.731Z,100788.88
2022-07-30T15:05:06.014Z,100776.50
2022-07-30T15:07:34.735Z,100783.72
2022-07-30T15:10:02.533Z,100778.81
2022-07-30T15:12:29.222Z,100784.97
2022-07-30T15:14:55.832Z,100782.66
2022-07-30T15:17:22.338Z,100785.22
2022-07-30T15:19:50.452Z,100781.16
2022-07-30T15:22:19.075Z,100791.75
2022-07-30T15:24:45.584Z,100781.75
2022-07-30T15:27:12.358Z,100784.59
2022-07-30T15:29:39.027Z,100779.88
2022-07-30T15:32:06.375Z,100773.94
2022-07-30T15:34:36.984Z,100787.06
2022-07-30T15:37:04.148Z,100779.16
2022-07-30T15:39:32.951Z,100783.31
2022-07-30T15:42:01.839Z,100785.34
2022-07-30T15:44:28.712Z,100782.72
2022-07-30T15:46:55.331Z,100785.53
2022-07-30T15:49:23.781Z,100787.59
2022-07-30T15:51:51.719Z,100779.69
2022-07-30T15:54:22.711Z,100778.28
2022-07-30T15:57:00.854Z,100780.72
2022-07-30T15:59:28.393Z,100785.75
2022-07-30T16:01:54.903Z,100784.16
2022-07-30T16:04:21.369Z,100785.97
2022-07-30T16:06:58.219Z,100780.59
2022-07-30T16:09:24.823Z,100776.63
2022-07-30T16:11:53.711Z,100777.88
2022-07-30T16:14:20.291Z,100779.09
2022-07-30T16:16:46.846Z,100788.72
2022-07-30T16:19:13.350Z,100782.34
2022-07-30T16:21:39.998Z,100788.63
2022-07-30T16:24:07.108Z,100781.91
2022-07-30T16:26:35.836Z,100787.88
2022-07-30T16:29:02.305Z,100796.47
2022-07-30T16:31:28.763Z,100781.16
2022-07-30T16:33:55.353Z,100788.09
2022-07-30T16:36:21.824Z,100794.81
2022-07-30T16:38:48.326Z,100803.19
2022-07-30T16:41:14.871Z,100804.72
2022-07-30T16:43:41.414Z,100806.31
2022-07-30T16:46:08.270Z,100813.41
2022-07-30T16:48:34.748Z,100825.53
2022-07-30T16:51:01.402Z,100823.41
2022-07-30T16:53:28.379Z,100825.03
2022-07-30T16:55:56.925Z,100828.41
2022-07-30T16:58:28.283Z,100825.38
2022-07-30T17:00:57.347Z,100824.47
2022-07-30T17:03:25.223Z,100820.34
2022-07-30T17:05:52.162Z,100818.22
2022-07-30T17:08:18.991Z,100822.53
2022-07-30T17:10:52.493Z,100823.81
2022-07-30T17:13:19.268Z,100823.84
2022-07-30T17:15:46.885Z,100825.78
2022-07-30T17:18:13.817Z,100834.41
2022-07-30T17:20:40.635Z,100844.03
2022-07-30T17:23:07.784Z,100857.16
2022-07-30T17:25:34.404Z,100846.66
2022-07-30T17:28:01.932Z,100844.75
2022-07-30T17:30:29.433Z,100856.94
2022-07-30T17:32:56.521Z,100850.19
2022-07-30T17:35:24.729Z,100859.41
2022-07-30T17:37:51.253Z,100854.41
2022-07-30T17:40:28.320Z,100858.22
2022-07-30T17:43:03.366Z,100862.69
2022-07-30T17:45:31.275Z,100870.75
2022-07-30T17:47:57.997Z,100859.81
2022-07-30T17:50:24.504Z,100863.16
2022-07-30T17:52:51.087Z,100856.50
2022-07-30T17:55:17.662Z,100856.47
2022-07-30T17:57:44.132Z,100867.06
2022-07-30T18:00:11.103Z,100856.25
2022-07-30T18:02:37.621Z,100853.53
2022-07-30T18:05:04.521Z,100862.00
2022-07-30T18:07:31.048Z,100870.69
2022-07-30T18:09:57.502Z,100859.66
2022-07-30T18:12:23.994Z,100870.09
2022-07-30T18:14:50.641Z,100861.78
2022-07-30T18:17:17.247Z,100862.63
2022-07-30T18:19:43.940Z,100864.25
2022-07-30T18:22:10.497Z,100865.91
2022-07-30T18:24:43.884Z,100860.13
2022-07-30T18:27:12.104Z,100860.13
2022-07-30T18:29:38.808Z,100865.75
2022-07-30T18:32:06.039Z,100864.72
2022-07-30T18:34:33.067Z,100864.53
2022-07-30T18:36:59.884Z,100868.88
2022-07-30T18:39:26.398Z,100863.38
2022-07-30T18:41:53.025Z,100865.19
2022-07-30T18:44:19.625Z,100868.00
2022-07-30T18:46:46.190Z,100867.50
2022-07-30T18:49:34.993Z,100858.19
2022-07-30T18:52:01.262Z,100861.81
2022-07-30T18:54:29.357Z,100854.00
2022-07-30T18:56:55.897Z,100863.16
2022-07-30T18:59:22.468Z,100866.19
2022-07-30T19:01:48.990Z,100871.97
2022-07-30T19:04:15.504Z,100864.72
2022-07-30T19:06:42.005Z,100863.53
2022-07-30T19:09:16.766Z,100876.97
2022-07-30T19:11:44.397Z,100865.75
2022-07-30T19:14:13.061Z,100870.75
2022-07-30T19:16:40.599Z,100877.03
2022-07-30T19:19:07.541Z,100881.75
2022-07-30T19:21:34.003Z,100884.78
2022-07-30T19:24:00.502Z,100874.31
2022-07-30T19:26:27.256Z,100887.25
2022-07-30T19:28:53.740Z,100884.50
2022-07-30T19:31:20.354Z,100887.75
2022-07-30T19:33:46.901Z,100883.03
2022-07-30T19:36:16.284Z,100888.13
2022-07-30T19:38:45.154Z,100885.19
2022-07-30T19:41:12.009Z,100889.44
2022-07-30T19:43:40.708Z,100895.53
2022-07-30T19:46:07.171Z,100889.94
2022-07-30T19:48:36.051Z,100895.38
2022-07-30T19:51:05.304Z,100904.19
2022-07-30T19:53:42.403Z,100900.97
2022-07-30T19:56:11.333Z,100895.56
2022-07-30T19:58:37.986Z,100897.09
2022-07-30T20:01:08.561Z,100900.28
2022-07-30T20:03:35.886Z,100896.72
2022-07-30T20:06:03.752Z,100903.69
2022-07-30T20:08:30.235Z,100904.34
2022-07-30T20:10:59.076Z,100902.34
2022-07-30T20:13:45.058Z,100910.97
2022-07-30T20:16:14.352Z,100919.38
2022-07-30T20:18:42.730Z,100913.91
2022-07-30T20:21:15.124Z,100916.50
2022-07-30T20:23:42.270Z,100919.34
2022-07-30T20:26:12.794Z,100911.59
2022-07-30T20:28:40.947Z,100923.22
2022-07-30T20:31:08.474Z,100927.28
2022-07-30T20:33:36.083Z,100923.84
2022-07-30T20:36:04.769Z,100927.28
2022-07-30T20:38:33.667Z,100922.94
2022-07-30T20:41:02.202Z,100926.19
2022-07-30T20:43:28.858Z,100927.44
2022-07-30T20:45:56.840Z,100924.25
2022-07-30T20:48:25.556Z,100920.50
2022-07-30T20:50:52.453Z,100923.84
2022-07-30T20:53:20.767Z,100922.28
2022-07-30T20:55:47.365Z,100918.78
2022-07-30T20:58:16.507Z,100916.53
2022-07-30T21:00:49.944Z,100921.41
2022-07-30T21:03:21.750Z,100921.06
2022-07-30T21:05:48.963Z,100907.53
2022-07-30T21:08:18.928Z,100920.22
2022-07-30T21:10:46.775Z,100913.81
2022-07-30T21:13:13.665Z,100915.00
2022-07-30T21:16:01.550Z,100912.78
2022-07-30T21:18:26.768Z,100910.72
2022-07-30T21:20:53.276Z,100916.13
2022-07-30T21:23:22.349Z,100906.63
2022-07-30T21:26:00.413Z,100909.88
2022-07-30T21:28:30.265Z,100903.63
2022-07-30T21:31:02.582Z,100910.31
2022-07-30T21:33:31.516Z,100907.19
2022-07-30T21:35:59.024Z,100917.94
2022-07-30T21:38:26.566Z,100913.53
2022-07-30T21:40:53.370Z,100910.94
2022-07-30T21:46:06.634Z,100906.09
2022-07-30T21:48:33.350Z,100918.28
2022-07-30T21:50:59.828Z,100911.69
2022-07-30T21:53:45.275Z,100913.34
2022-07-30T21:56:13.270Z,100929.94
2022-07-30T21:58:40.053Z,100921.22
2022-07-30T22:01:17.412Z,100921.13
2022-07-30T22:04:04.192Z,100926.41
2022-07-30T22:06:37.713Z,100930.28
2022-07-30T22:09:20.542Z,100931.91
2022-07-30T22:11:52.894Z,100921.75
2022-07-30T22:14:19.346Z,100929.97
2022-07-30T22:16:46.581Z,100936.09
2022-07-30T22:19:14.674Z,100932.41
2022-07-30T22:21:46.846Z,100936.34
2022-07-30T22:24:28.893Z,100929.97
2022-07-30T22:26:56.804Z,100924.94
2022-07-30T22:29:24.097Z,100931.13
2022-07-30T22:31:50.551Z,100933.56
2022-07-30T22:34:17.036Z,100930.09
2022-07-30T22:36:45.668Z,100932.34
2022-07-30T22:39:12.377Z,100933.34
2022-07-30T22:41:39.223Z,100937.44
2022-07-30T22:44:06.665Z,100937.63
2022-07-30T22:46:38.687Z,100931.31
2022-07-30T22:49:24.621Z,100932.72
2022-07-30T22:52:01.843Z,100930.09
2022-07-30T22:54:37.289Z,100924.44
2022-07-30T22:57:04.288Z,100918.56
2022-07-30T23:02:17.958Z,100918.78
2022-07-30T23:04:44.670Z,100919.63
2022-07-30T23:07:13.968Z,100919.00
2022-07-30T23:09:51.754Z,100925.09
2022-07-30T23:12:19.998Z,100919.28
2022-07-30T23:12:32.161Z,100905.50
2022-07-30T23:12:33.758Z,100916.88
2022-07-30T23:14:47.494Z,100914.78
2022-07-30T23:17:14.296Z,100921.50
2022-07-30T23:19:40.797Z,100923.56
2022-07-30T23:22:07.260Z,100909.31
2022-07-30T23:24:33.754Z,100919.84
2022-07-30T23:27:00.499Z,100914.22
2022-07-30T23:29:28.441Z,100916.50
2022-07-30T23:31:55.473Z,100911.63
2022-07-30T23:34:22.022Z,100902.63
2022-07-30T23:36:49.409Z,100905.19
2022-07-30T23:39:15.948Z,100911.25
2022-07-30T23:41:43.648Z,100906.69
2022-07-30T23:44:10.107Z,100916.16
2022-07-30T23:46:37.161Z,100910.50
2022-07-30T23:49:04.499Z,100911.53
2022-07-30T23:51:33.248Z,100907.31
2022-07-30T23:54:00.104Z,100904.16
2022-07-30T23:56:26.583Z,100908.09
2022-07-30T23:58:53.050Z,100911.41
